sensor_id;sensor_type;location;lat;lon;timestamp;P1;durP1;ratioP1;P2;durP2;ratioP2
57321;SDS011;43159;51.006;18.224;2022-10-04T00:01:28;15.30;;;3.40;;
57321;SDS011;43159;51.006;18.224;2022-10-04T00:04:08;13.30;;;2.90;;
57321;SDS011;43159;51.006;18.224;2022-10-04T00:06:36;14.20;;;2.80;;
57321;SDS011;43159;51.006;18.224;2022-10-04T00:09:16;16.00;;;3.20;;
57321;SDS011;43159;51.006;18.224;2022-10-04T00:11:45;16.70;;;3.40;;
57321;SDS011;43159;51.006;18.224;2022-10-04T00:14:19;14.70;;;2.70;;
57321;SDS011;43159;51.006;18.224;2022-10-04T00:16:48;15.70;;;2.90;;
57321;SDS011;43159;51.006;18.224;2022-10-04T00:24:30;18.80;;;4.80;;
57321;SDS011;43159;51.006;18.224;2022-10-04T00:32:29;16.50;;;3.50;;
57321;SDS011;43159;51.006;18.224;2022-10-04T00:34:56;19.90;;;4.30;;
57321;SDS011;43159;51.006;18.224;2022-10-04T00:37:24;16.00;;;3.20;;
57321;SDS011;43159;51.006;18.224;2022-10-04T00:40:10;19.90;;;4.10;;
57321;SDS011;43159;51.006;18.224;2022-10-04T00:43:14;12.00;;;2.60;;
57321;SDS011;43159;51.006;18.224;2022-10-04T00:45:41;15.50;;;2.90;;
57321;SDS011;43159;51.006;18.224;2022-10-04T00:48:19;16.70;;;3.30;;
57321;SDS011;43159;51.006;18.224;2022-10-04T00:50:53;15.10;;;3.60;;
57321;SDS011;43159;51.006;18.224;2022-10-04T00:54:01;15.90;;;3.30;;
57321;SDS011;43159;51.006;18.224;2022-10-04T01:07:14;16.80;;;3.50;;
57321;SDS011;43159;51.006;18.224;2022-10-04T01:09:50;16.10;;;3.40;;
57321;SDS011;43159;51.006;18.224;2022-10-04T01:12:32;15.30;;;3.40;;
57321;SDS011;43159;51.006;18.224;2022-10-04T01:15:11;17.00;;;3.30;;
57321;SDS011;43159;51.006;18.224;2022-10-04T01:17:40;18.50;;;3.70;;
57321;SDS011;43159;51.006;18.224;2022-10-04T01:22:58;14.00;;;2.90;;
57321;SDS011;43159;51.006;18.224;2022-10-04T01:25:57;15.00;;;2.90;;
57321;SDS011;43159;51.006;18.224;2022-10-04T01:28:16;15.20;;;3.40;;
57321;SDS011;43159;51.006;18.224;2022-10-04T01:30:42;15.30;;;3.20;;
57321;SDS011;43159;51.006;18.224;2022-10-04T01:33:08;14.90;;;2.80;;
57321;SDS011;43159;51.006;18.224;2022-10-04T01:35:34;17.10;;;3.50;;
57321;SDS011;43159;51.006;18.224;2022-10-04T01:38:01;14.20;;;2.50;;
57321;SDS011;43159;51.006;18.224;2022-10-04T01:40:30;11.70;;;2.60;;
57321;SDS011;43159;51.006;18.224;2022-10-04T01:42:59;12.70;;;2.70;;
57321;SDS011;43159;51.006;18.224;2022-10-04T01:45:29;14.00;;;2.80;;
57321;SDS011;43159;51.006;18.224;2022-10-04T01:48:00;17.40;;;2.90;;
57321;SDS011;43159;51.006;18.224;2022-10-04T01:51:04;13.90;;;3.00;;
57321;SDS011;43159;51.006;18.224;2022-10-04T01:53:23;15.50;;;3.20;;
57321;SDS011;43159;51.006;18.224;2022-10-04T01:56:08;12.30;;;2.20;;
57321;SDS011;43159;51.006;18.224;2022-10-04T01:58:41;16.30;;;3.20;;
57321;SDS011;43159;51.006;18.224;2022-10-04T02:01:18;15.40;;;2.80;;
57321;SDS011;43159;51.006;18.224;2022-10-04T02:03:53;14.00;;;2.70;;
57321;SDS011;43159;51.006;18.224;2022-10-04T02:06:20;13.40;;;2.50;;
57321;SDS011;43159;51.006;18.224;2022-10-04T02:08:48;12.80;;;2.80;;
57321;SDS011;43159;51.006;18.224;2022-10-04T02:11:16;12.20;;;2.50;;
57321;SDS011;43159;51.006;18.224;2022-10-04T02:13:46;14.30;;;3.00;;
57321;SDS011;43159;51.006;18.224;2022-10-04T02:16:13;14.70;;;3.20;;
57321;SDS011;43159;51.006;18.224;2022-10-04T02:18:40;15.60;;;2.80;;
57321;SDS011;43159;51.006;18.224;2022-10-04T02:21:08;14.30;;;3.00;;
57321;SDS011;43159;51.006;18.224;2022-10-04T02:23:35;14.00;;;2.90;;
57321;SDS011;43159;51.006;18.224;2022-10-04T02:26:05;16.80;;;3.40;;
57321;SDS011;43159;51.006;18.224;2022-10-04T02:28:34;14.00;;;2.70;;
57321;SDS011;43159;51.006;18.224;2022-10-04T02:31:00;13.10;;;2.50;;
57321;SDS011;43159;51.006;18.224;2022-10-04T02:33:46;16.20;;;3.10;;
57321;SDS011;43159;51.006;18.224;2022-10-04T02:36:13;15.40;;;2.90;;
57321;SDS011;43159;51.006;18.224;2022-10-04T02:38:45;14.90;;;2.70;;
57321;SDS011;43159;51.006;18.224;2022-10-04T02:41:27;15.70;;;2.90;;
57321;SDS011;43159;51.006;18.224;2022-10-04T02:44:03;14.70;;;3.10;;
57321;SDS011;43159;51.006;18.224;2022-10-04T02:49:33;12.90;;;2.60;;
57321;SDS011;43159;51.006;18.224;2022-10-04T02:52:08;15.20;;;3.20;;
57321;SDS011;43159;51.006;18.224;2022-10-04T02:57:18;14.10;;;3.10;;
57321;SDS011;43159;51.006;18.224;2022-10-04T02:59:45;18.30;;;2.80;;
57321;SDS011;43159;51.006;18.224;2022-10-04T03:02:27;13.70;;;3.00;;
57321;SDS011;43159;51.006;18.224;2022-10-04T03:04:55;15.20;;;2.80;;
57321;SDS011;43159;51.006;18.224;2022-10-04T03:07:24;15.90;;;3.10;;
57321;SDS011;43159;51.006;18.224;2022-10-04T03:09:50;13.00;;;2.90;;
57321;SDS011;43159;51.006;18.224;2022-10-04T03:12:16;14.30;;;2.70;;
57321;SDS011;43159;51.006;18.224;2022-10-04T03:14:42;13.40;;;2.80;;
57321;SDS011;43159;51.006;18.224;2022-10-04T03:17:09;14.40;;;2.70;;
57321;SDS011;43159;51.006;18.224;2022-10-04T03:19:35;15.60;;;3.10;;
57321;SDS011;43159;51.006;18.224;2022-10-04T03:22:06;14.20;;;2.80;;
57321;SDS011;43159;51.006;18.224;2022-10-04T03:24:36;15.30;;;2.80;;
57321;SDS011;43159;51.006;18.224;2022-10-04T03:27:17;16.00;;;3.30;;
57321;SDS011;43159;51.006;18.224;2022-10-04T03:29:44;17.30;;;2.90;;
57321;SDS011;43159;51.006;18.224;2022-10-04T03:32:13;12.40;;;2.60;;
57321;SDS011;43159;51.006;18.224;2022-10-04T03:34:41;12.90;;;2.60;;
57321;SDS011;43159;51.006;18.224;2022-10-04T03:37:14;14.80;;;2.90;;
57321;SDS011;43159;51.006;18.224;2022-10-04T03:39:44;12.90;;;2.50;;
57321;SDS011;43159;51.006;18.224;2022-10-04T03:42:16;14.40;;;2.80;;
57321;SDS011;43159;51.006;18.224;2022-10-04T03:44:48;13.30;;;2.60;;
57321;SDS011;43159;51.006;18.224;2022-10-04T03:47:24;13.30;;;2.80;;
57321;SDS011;43159;51.006;18.224;2022-10-04T03:49:53;15.50;;;3.00;;
57321;SDS011;43159;51.006;18.224;2022-10-04T03:52:22;15.60;;;3.00;;
57321;SDS011;43159;51.006;18.224;2022-10-04T03:54:50;16.60;;;3.20;;
57321;SDS011;43159;51.006;18.224;2022-10-04T03:57:17;13.80;;;2.80;;
57321;SDS011;43159;51.006;18.224;2022-10-04T03:59:43;13.10;;;3.00;;
57321;SDS011;43159;51.006;18.224;2022-10-04T04:02:15;15.10;;;2.90;;
57321;SDS011;43159;51.006;18.224;2022-10-04T04:05:06;16.00;;;3.00;;
57321;SDS011;43159;51.006;18.224;2022-10-04T04:07:38;14.30;;;2.70;;
57321;SDS011;43159;51.006;18.224;2022-10-04T04:10:25;16.20;;;3.40;;
57321;SDS011;43159;51.006;18.224;2022-10-04T04:12:56;12.60;;;2.90;;
57321;SDS011;43159;51.006;18.224;2022-10-04T04:15:35;15.60;;;3.10;;
57321;SDS011;43159;51.006;18.224;2022-10-04T04:18:12;16.00;;;3.10;;
57321;SDS011;43159;51.006;18.224;2022-10-04T04:20:41;15.70;;;3.50;;
57321;SDS011;43159;51.006;18.224;2022-10-04T04:25:46;15.30;;;3.10;;
57321;SDS011;43159;51.006;18.224;2022-10-04T04:28:29;13.80;;;3.10;;
57321;SDS011;43159;51.006;18.224;2022-10-04T04:30:58;13.60;;;3.10;;
57321;SDS011;43159;51.006;18.224;2022-10-04T04:33:30;14.10;;;3.10;;
57321;SDS011;43159;51.006;18.224;2022-10-04T04:36:10;15.50;;;3.50;;
57321;SDS011;43159;51.006;18.224;2022-10-04T04:38:37;14.70;;;2.90;;
57321;SDS011;43159;51.006;18.224;2022-10-04T04:41:23;19.20;;;3.70;;
57321;SDS011;43159;51.006;18.224;2022-10-04T04:43:49;14.20;;;3.10;;
57321;SDS011;43159;51.006;18.224;2022-10-04T04:46:15;15.80;;;3.30;;
57321;SDS011;43159;51.006;18.224;2022-10-04T04:48:44;15.10;;;3.30;;
57321;SDS011;43159;51.006;18.224;2022-10-04T04:51:13;13.80;;;3.30;;
57321;SDS011;43159;51.006;18.224;2022-10-04T04:53:44;13.30;;;3.20;;
57321;SDS011;43159;51.006;18.224;2022-10-04T04:56:12;16.10;;;3.30;;
57321;SDS011;43159;51.006;18.224;2022-10-04T04:58:46;14.90;;;3.30;;
57321;SDS011;43159;51.006;18.224;2022-10-04T05:01:14;14.90;;;3.20;;
57321;SDS011;43159;51.006;18.224;2022-10-04T05:03:58;13.40;;;3.00;;
57321;SDS011;43159;51.006;18.224;2022-10-04T05:06:26;15.30;;;3.10;;
57321;SDS011;43159;51.006;18.224;2022-10-04T05:08:54;14.60;;;3.20;;
57321;SDS011;43159;51.006;18.224;2022-10-04T05:11:20;13.70;;;3.10;;
57321;SDS011;43159;51.006;18.224;2022-10-04T05:13:51;15.60;;;3.10;;
57321;SDS011;43159;51.006;18.224;2022-10-04T05:16:22;14.90;;;3.60;;
57321;SDS011;43159;51.006;18.224;2022-10-04T05:18:58;16.40;;;3.10;;
57321;SDS011;43159;51.006;18.224;2022-10-04T05:21:30;15.40;;;3.20;;
57321;SDS011;43159;51.006;18.224;2022-10-04T05:23:57;18.10;;;3.20;;
57321;SDS011;43159;51.006;18.224;2022-10-04T05:26:32;12.30;;;3.10;;
57321;SDS011;43159;51.006;18.224;2022-10-04T05:29:04;15.00;;;3.00;;
57321;SDS011;43159;51.006;18.224;2022-10-04T05:34:31;14.80;;;2.90;;
57321;SDS011;43159;51.006;18.224;2022-10-04T05:42:20;14.70;;;3.00;;
57321;SDS011;43159;51.006;18.224;2022-10-04T05:44:49;15.40;;;2.90;;
57321;SDS011;43159;51.006;18.224;2022-10-04T05:47:17;14.90;;;3.10;;
57321;SDS011;43159;51.006;18.224;2022-10-04T05:49:49;15.70;;;2.90;;
57321;SDS011;43159;51.006;18.224;2022-10-04T05:52:27;16.50;;;3.20;;
57321;SDS011;43159;51.006;18.224;2022-10-04T05:57:50;13.80;;;3.30;;
57321;SDS011;43159;51.006;18.224;2022-10-04T06:00:24;14.90;;;3.10;;
57321;SDS011;43159;51.006;18.224;2022-10-04T06:22:34;14.00;;;3.20;;
57321;SDS011;43159;51.006;18.224;2022-10-04T06:27:59;14.70;;;3.50;;
57321;SDS011;43159;51.006;18.224;2022-10-04T06:39:34;13.10;;;3.00;;
57321;SDS011;43159;51.006;18.224;2022-10-04T06:42:21;14.90;;;3.00;;
57321;SDS011;43159;51.006;18.224;2022-10-04T06:45:11;15.20;;;2.90;;
57321;SDS011;43159;51.006;18.224;2022-10-04T06:58:48;15.30;;;3.00;;
57321;SDS011;43159;51.006;18.224;2022-10-04T07:01:31;13.50;;;3.30;;
57321;SDS011;43159;51.006;18.224;2022-10-04T07:06:41;13.30;;;2.80;;
57321;SDS011;43159;51.006;18.224;2022-10-04T07:09:22;13.10;;;2.90;;
57321;SDS011;43159;51.006;18.224;2022-10-04T07:11:54;15.70;;;2.90;;
57321;SDS011;43159;51.006;18.224;2022-10-04T07:14:33;14.30;;;3.80;;
57321;SDS011;43159;51.006;18.224;2022-10-04T07:17:07;13.80;;;3.40;;
57321;SDS011;43159;51.006;18.224;2022-10-04T07:19:41;12.80;;;2.70;;
57321;SDS011;43159;51.006;18.224;2022-10-04T07:22:15;13.00;;;2.80;;
57321;SDS011;43159;51.006;18.224;2022-10-04T07:30:42;14.50;;;3.30;;
57321;SDS011;43159;51.006;18.224;2022-10-04T07:33:13;15.00;;;4.30;;
57321;SDS011;43159;51.006;18.224;2022-10-04T07:35:52;13.50;;;3.10;;
57321;SDS011;43159;51.006;18.224;2022-10-04T07:38:27;13.00;;;2.90;;
57321;SDS011;43159;51.006;18.224;2022-10-04T07:43:26;12.50;;;2.80;;
57321;SDS011;43159;51.006;18.224;2022-10-04T07:46:01;14.70;;;2.90;;
57321;SDS011;43159;51.006;18.224;2022-10-04T07:48:40;12.70;;;2.90;;
57321;SDS011;43159;51.006;18.224;2022-10-04T07:51:24;12.10;;;2.90;;
57321;SDS011;43159;51.006;18.224;2022-10-04T07:56:38;12.80;;;2.80;;
57321;SDS011;43159;51.006;18.224;2022-10-04T08:04:48;9.80;;;2.50;;
57321;SDS011;43159;51.006;18.224;2022-10-04T08:07:34;10.50;;;2.60;;
57321;SDS011;43159;51.006;18.224;2022-10-04T08:13:19;11.20;;;2.80;;
57321;SDS011;43159;51.006;18.224;2022-10-04T08:15:47;11.80;;;2.60;;
57321;SDS011;43159;51.006;18.224;2022-10-04T08:18:24;11.40;;;2.40;;
57321;SDS011;43159;51.006;18.224;2022-10-04T08:20:59;14.10;;;2.90;;
57321;SDS011;43159;51.006;18.224;2022-10-04T08:23:31;11.00;;;2.70;;
57321;SDS011;43159;51.006;18.224;2022-10-04T08:26:30;12.70;;;2.80;;
57321;SDS011;43159;51.006;18.224;2022-10-04T08:37:57;11.90;;;2.60;;
57321;SDS011;43159;51.006;18.224;2022-10-04T09:09:06;11.00;;;2.40;;
57321;SDS011;43159;51.006;18.224;2022-10-04T09:12:04;10.40;;;2.60;;
57321;SDS011;43159;51.006;18.224;2022-10-04T09:17:26;9.20;;;2.20;;
57321;SDS011;43159;51.006;18.224;2022-10-04T09:22:47;10.00;;;2.40;;
57321;SDS011;43159;51.006;18.224;2022-10-04T09:25:42;12.00;;;2.80;;
57321;SDS011;43159;51.006;18.224;2022-10-04T09:33:39;10.50;;;2.60;;
57321;SDS011;43159;51.006;18.224;2022-10-04T09:36:34;11.50;;;2.60;;
57321;SDS011;43159;51.006;18.224;2022-10-04T09:42:19;13.70;;;2.50;;
57321;SDS011;43159;51.006;18.224;2022-10-04T09:45:05;12.00;;;2.30;;
57321;SDS011;43159;51.006;18.224;2022-10-04T09:52:49;12.50;;;2.60;;
57321;SDS011;43159;51.006;18.224;2022-10-04T09:55:41;11.40;;;2.40;;
57321;SDS011;43159;51.006;18.224;2022-10-04T10:03:45;12.20;;;2.70;;
57321;SDS011;43159;51.006;18.224;2022-10-04T10:09:16;11.90;;;2.50;;
57321;SDS011;43159;51.006;18.224;2022-10-04T10:14:59;12.00;;;2.40;;
57321;SDS011;43159;51.006;18.224;2022-10-04T10:17:53;12.90;;;2.70;;
57321;SDS011;43159;51.006;18.224;2022-10-04T10:31:45;12.50;;;2.80;;
57321;SDS011;43159;51.006;18.224;2022-10-04T10:34:22;12.00;;;2.70;;
57321;SDS011;43159;51.006;18.224;2022-10-04T10:37:15;13.00;;;3.90;;
57321;SDS011;43159;51.006;18.224;2022-10-04T10:40:02;11.20;;;2.70;;
57321;SDS011;43159;51.006;18.224;2022-10-04T10:42:58;11.20;;;2.40;;
57321;SDS011;43159;51.006;18.224;2022-10-04T10:45:46;11.30;;;2.30;;
57321;SDS011;43159;51.006;18.224;2022-10-04T10:51:08;8.80;;;2.10;;
57321;SDS011;43159;51.006;18.224;2022-10-04T10:59:41;9.50;;;2.30;;
57321;SDS011;43159;51.006;18.224;2022-10-04T11:05:28;11.30;;;2.30;;
57321;SDS011;43159;51.006;18.224;2022-10-04T11:21:53;10.50;;;2.50;;
57321;SDS011;43159;51.006;18.224;2022-10-04T11:30:09;11.60;;;2.60;;
57321;SDS011;43159;51.006;18.224;2022-10-04T11:43:32;11.70;;;2.50;;
57321;SDS011;43159;51.006;18.224;2022-10-04T11:49:19;10.20;;;2.30;;
57321;SDS011;43159;51.006;18.224;2022-10-04T11:57:54;10.60;;;2.40;;
57321;SDS011;43159;51.006;18.224;2022-10-04T12:08:45;9.60;;;2.00;;
57321;SDS011;43159;51.006;18.224;2022-10-04T12:14:23;9.10;;;2.50;;
57321;SDS011;43159;51.006;18.224;2022-10-04T12:22:25;10.60;;;2.20;;
57321;SDS011;43159;51.006;18.224;2022-10-04T12:25:11;9.80;;;2.10;;
57321;SDS011;43159;51.006;18.224;2022-10-04T12:30:34;12.00;;;2.60;;
57321;SDS011;43159;51.006;18.224;2022-10-04T12:36:03;11.90;;;2.50;;
57321;SDS011;43159;51.006;18.224;2022-10-04T12:44:44;11.00;;;2.40;;
57321;SDS011;43159;51.006;18.224;2022-10-04T12:52:52;10.20;;;2.10;;
57321;SDS011;43159;51.006;18.224;2022-10-04T12:55:39;10.30;;;2.10;;
57321;SDS011;43159;51.006;18.224;2022-10-04T12:58:20;9.80;;;2.20;;
57321;SDS011;43159;51.006;18.224;2022-10-04T13:00:51;10.00;;;2.10;;
57321;SDS011;43159;51.006;18.224;2022-10-04T13:05:59;8.80;;;2.10;;
57321;SDS011;43159;51.006;18.224;2022-10-04T13:12:00;10.20;;;2.20;;
57321;SDS011;43159;51.006;18.224;2022-10-04T13:14:59;10.00;;;2.10;;
57321;SDS011;43159;51.006;18.224;2022-10-04T13:18:04;10.10;;;2.30;;
57321;SDS011;43159;51.006;18.224;2022-10-04T13:23:34;10.10;;;2.30;;
57321;SDS011;43159;51.006;18.224;2022-10-04T13:26:04;10.80;;;2.40;;
57321;SDS011;43159;51.006;18.224;2022-10-04T13:29:19;10.80;;;2.40;;
57321;SDS011;43159;51.006;18.224;2022-10-04T13:31:51;11.10;;;2.30;;
57321;SDS011;43159;51.006;18.224;2022-10-04T13:34:39;9.80;;;2.10;;
57321;SDS011;43159;51.006;18.224;2022-10-04T13:43:39;9.50;;;2.00;;
57321;SDS011;43159;51.006;18.224;2022-10-04T13:46:38;7.60;;;1.90;;
57321;SDS011;43159;51.006;18.224;2022-10-04T13:49:23;8.80;;;2.20;;
57321;SDS011;43159;51.006;18.224;2022-10-04T14:33:46;9.20;;;2.30;;
57321;SDS011;43159;51.006;18.224;2022-10-04T14:36:52;10.30;;;2.50;;
57321;SDS011;43159;51.006;18.224;2022-10-04T14:42:55;11.10;;;2.30;;
57321;SDS011;43159;51.006;18.224;2022-10-04T14:53:53;10.30;;;2.20;;
57321;SDS011;43159;51.006;18.224;2022-10-04T15:01:42;11.90;;;2.60;;
57321;SDS011;43159;51.006;18.224;2022-10-04T15:04:31;12.20;;;2.50;;
57321;SDS011;43159;51.006;18.224;2022-10-04T15:09:49;10.80;;;2.50;;
57321;SDS011;43159;51.006;18.224;2022-10-04T15:15:32;12.10;;;3.30;;
57321;SDS011;43159;51.006;18.224;2022-10-04T15:18:04;13.20;;;3.90;;
57321;SDS011;43159;51.006;18.224;2022-10-04T15:20:51;18.90;;;5.20;;
57321;SDS011;43159;51.006;18.224;2022-10-04T15:23:29;12.90;;;3.80;;
57321;SDS011;43159;51.006;18.224;2022-10-04T15:28:52;16.30;;;6.20;;
57321;SDS011;43159;51.006;18.224;2022-10-04T15:39:43;25.40;;;10.80;;
57321;SDS011;43159;51.006;18.224;2022-10-04T15:42:31;31.40;;;15.30;;
57321;SDS011;43159;51.006;18.224;2022-10-04T15:50:51;18.20;;;7.70;;
57321;SDS011;43159;51.006;18.224;2022-10-04T15:56:34;19.40;;;6.00;;
57321;SDS011;43159;51.006;18.224;2022-10-04T16:10:27;16.30;;;4.90;;
57321;SDS011;43159;51.006;18.224;2022-10-04T16:15:41;30.20;;;10.10;;
57321;SDS011;43159;51.006;18.224;2022-10-04T16:32:15;18.30;;;5.70;;
57321;SDS011;43159;51.006;18.224;2022-10-04T16:48:04;15.50;;;5.10;;
57321;SDS011;43159;51.006;18.224;2022-10-04T16:55:57;14.10;;;4.10;;
57321;SDS011;43159;51.006;18.224;2022-10-04T17:04:17;18.70;;;5.60;;
57321;SDS011;43159;51.006;18.224;2022-10-04T17:15:32;18.60;;;5.70;;
57321;SDS011;43159;51.006;18.224;2022-10-04T17:20:53;15.90;;;5.70;;
57321;SDS011;43159;51.006;18.224;2022-10-04T17:23:29;19.30;;;7.30;;
57321;SDS011;43159;51.006;18.224;2022-10-04T17:31:52;18.80;;;6.30;;
57321;SDS011;43159;51.006;18.224;2022-10-04T17:45:40;17.40;;;7.90;;
57321;SDS011;43159;51.006;18.224;2022-10-04T17:48:44;16.10;;;5.90;;
57321;SDS011;43159;51.006;18.224;2022-10-04T17:51:46;15.60;;;6.70;;
57321;SDS011;43159;51.006;18.224;2022-10-04T17:57:22;18.10;;;6.90;;
57321;SDS011;43159;51.006;18.224;2022-10-04T17:59:52;17.50;;;6.70;;
57321;SDS011;43159;51.006;18.224;2022-10-04T18:05:17;20.60;;;7.20;;
57321;SDS011;43159;51.006;18.224;2022-10-04T18:07:59;19.30;;;7.40;;
57321;SDS011;43159;51.006;18.224;2022-10-04T18:10:34;18.80;;;7.80;;
57321;SDS011;43159;51.006;18.224;2022-10-04T18:15:47;26.00;;;12.60;;
57321;SDS011;43159;51.006;18.224;2022-10-04T18:23:27;34.50;;;15.80;;
57321;SDS011;43159;51.006;18.224;2022-10-04T18:25:58;30.00;;;15.20;;
57321;SDS011;43159;51.006;18.224;2022-10-04T18:28:27;28.90;;;14.70;;
57321;SDS011;43159;51.006;18.224;2022-10-04T18:30:55;29.70;;;15.40;;
57321;SDS011;43159;51.006;18.224;2022-10-04T18:36:03;30.70;;;16.00;;
57321;SDS011;43159;51.006;18.224;2022-10-04T18:38:33;32.00;;;17.50;;
57321;SDS011;43159;51.006;18.224;2022-10-04T18:41:00;33.80;;;16.90;;
57321;SDS011;43159;51.006;18.224;2022-10-04T18:46:21;36.00;;;18.40;;
57321;SDS011;43159;51.006;18.224;2022-10-04T18:51:39;32.20;;;17.00;;
57321;SDS011;43159;51.006;18.224;2022-10-04T18:56:48;32.50;;;17.10;;
57321;SDS011;43159;51.006;18.224;2022-10-04T18:59:32;31.90;;;16.80;;
57321;SDS011;43159;51.006;18.224;2022-10-04T19:08:00;29.20;;;16.60;;
57321;SDS011;43159;51.006;18.224;2022-10-04T19:11:15;35.50;;;16.90;;
57321;SDS011;43159;51.006;18.224;2022-10-04T19:13:43;29.60;;;16.90;;
57321;SDS011;43159;51.006;18.224;2022-10-04T19:21:55;28.30;;;15.60;;
57321;SDS011;43159;51.006;18.224;2022-10-04T19:27:19;29.10;;;15.40;;
57321;SDS011;43159;51.006;18.224;2022-10-04T19:41:18;31.50;;;16.90;;
57321;SDS011;43159;51.006;18.224;2022-10-04T19:46:54;30.30;;;16.60;;
57321;SDS011;43159;51.006;18.224;2022-10-04T19:49:32;31.50;;;17.00;;
57321;SDS011;43159;51.006;18.224;2022-10-04T19:54:46;33.50;;;18.80;;
57321;SDS011;43159;51.006;18.224;2022-10-04T19:57:16;38.10;;;19.80;;
57321;SDS011;43159;51.006;18.224;2022-10-04T19:59:50;36.70;;;20.00;;
57321;SDS011;43159;51.006;18.224;2022-10-04T20:02:16;38.30;;;19.70;;
57321;SDS011;43159;51.006;18.224;2022-10-04T20:04:42;36.10;;;20.40;;
57321;SDS011;43159;51.006;18.224;2022-10-04T20:12:26;34.60;;;18.40;;
57321;SDS011;43159;51.006;18.224;2022-10-04T20:17:47;37.60;;;19.10;;
57321;SDS011;43159;51.006;18.224;2022-10-04T20:23:06;33.20;;;16.70;;
57321;SDS011;43159;51.006;18.224;2022-10-04T20:28:35;28.30;;;14.70;;
57321;SDS011;43159;51.006;18.224;2022-10-04T20:31:00;25.70;;;13.10;;
57321;SDS011;43159;51.006;18.224;2022-10-04T20:36:05;25.30;;;11.00;;
57321;SDS011;43159;51.006;18.224;2022-10-04T20:43:56;22.50;;;11.70;;
57321;SDS011;43159;51.006;18.224;2022-10-04T20:46:35;24.30;;;11.80;;
57321;SDS011;43159;51.006;18.224;2022-10-04T20:49:02;22.20;;;11.40;;
57321;SDS011;43159;51.006;18.224;2022-10-04T20:51:30;21.10;;;10.90;;
57321;SDS011;43159;51.006;18.224;2022-10-04T20:53:57;20.90;;;10.60;;
57321;SDS011;43159;51.006;18.224;2022-10-04T20:56:30;22.20;;;11.60;;
57321;SDS011;43159;51.006;18.224;2022-10-04T20:59:00;24.70;;;12.50;;
57321;SDS011;43159;51.006;18.224;2022-10-04T21:01:34;23.00;;;12.10;;
57321;SDS011;43159;51.006;18.224;2022-10-04T21:07:00;27.30;;;12.40;;
57321;SDS011;43159;51.006;18.224;2022-10-04T21:09:28;25.20;;;12.60;;
57321;SDS011;43159;51.006;18.224;2022-10-04T21:11:55;27.30;;;12.80;;
57321;SDS011;43159;51.006;18.224;2022-10-04T21:14:25;24.30;;;12.40;;
57321;SDS011;43159;51.006;18.224;2022-10-04T21:16:53;26.40;;;13.00;;
57321;SDS011;43159;51.006;18.224;2022-10-04T21:19:27;25.50;;;12.60;;
57321;SDS011;43159;51.006;18.224;2022-10-04T21:29:29;26.10;;;12.80;;
57321;SDS011;43159;51.006;18.224;2022-10-04T21:31:58;25.60;;;13.00;;
57321;SDS011;43159;51.006;18.224;2022-10-04T21:34:23;28.30;;;13.60;;
57321;SDS011;43159;51.006;18.224;2022-10-04T21:36:50;25.10;;;12.80;;
57321;SDS011;43159;51.006;18.224;2022-10-04T21:39:16;24.60;;;12.30;;
57321;SDS011;43159;51.006;18.224;2022-10-04T21:41:41;22.50;;;11.80;;
57321;SDS011;43159;51.006;18.224;2022-10-04T21:44:08;28.30;;;11.80;;
57321;SDS011;43159;51.006;18.224;2022-10-04T21:46:33;22.70;;;11.50;;
57321;SDS011;43159;51.006;18.224;2022-10-04T21:48:59;26.50;;;11.90;;
57321;SDS011;43159;51.006;18.224;2022-10-04T21:51:24;24.90;;;11.80;;
57321;SDS011;43159;51.006;18.224;2022-10-04T21:53:50;23.00;;;11.00;;
57321;SDS011;43159;51.006;18.224;2022-10-04T21:56:16;22.20;;;11.20;;
57321;SDS011;43159;51.006;18.224;2022-10-04T21:58:41;24.30;;;11.20;;
57321;SDS011;43159;51.006;18.224;2022-10-04T22:01:07;23.20;;;11.00;;
57321;SDS011;43159;51.006;18.224;2022-10-04T22:03:33;22.40;;;11.00;;
57321;SDS011;43159;51.006;18.224;2022-10-04T22:05:58;21.90;;;10.40;;
57321;SDS011;43159;51.006;18.224;2022-10-04T22:08:24;23.40;;;11.10;;
57321;SDS011;43159;51.006;18.224;2022-10-04T22:10:49;24.40;;;10.90;;
57321;SDS011;43159;51.006;18.224;2022-10-04T22:13:15;22.70;;;11.00;;
57321;SDS011;43159;51.006;18.224;2022-10-04T22:15:40;21.30;;;10.60;;
57321;SDS011;43159;51.006;18.224;2022-10-04T22:18:06;23.90;;;10.50;;
57321;SDS011;43159;51.006;18.224;2022-10-04T22:20:32;22.20;;;10.40;;
57321;SDS011;43159;51.006;18.224;2022-10-04T22:22:57;22.00;;;10.50;;
57321;SDS011;43159;51.006;18.224;2022-10-04T22:25:36;22.70;;;10.10;;
57321;SDS011;43159;51.006;18.224;2022-10-04T22:28:12;22.60;;;10.30;;
57321;SDS011;43159;51.006;18.224;2022-10-04T22:30:49;21.10;;;10.00;;
57321;SDS011;43159;51.006;18.224;2022-10-04T22:33:35;21.90;;;10.30;;
57321;SDS011;43159;51.006;18.224;2022-10-04T22:36:21;22.50;;;10.60;;
57321;SDS011;43159;51.006;18.224;2022-10-04T22:38:50;22.20;;;9.90;;
57321;SDS011;43159;51.006;18.224;2022-10-04T22:41:24;20.40;;;10.00;;
57321;SDS011;43159;51.006;18.224;2022-10-04T22:43:54;21.10;;;9.70;;
57321;SDS011;43159;51.006;18.224;2022-10-04T22:46:21;19.70;;;9.90;;
57321;SDS011;43159;51.006;18.224;2022-10-04T22:48:51;24.50;;;10.60;;
57321;SDS011;43159;51.006;18.224;2022-10-04T22:51:17;23.20;;;10.80;;
57321;SDS011;43159;51.006;18.224;2022-10-04T22:53:44;21.30;;;9.60;;
57321;SDS011;43159;51.006;18.224;2022-10-04T22:56:12;21.60;;;10.10;;
57321;SDS011;43159;51.006;18.224;2022-10-04T22:58:38;21.20;;;9.80;;
57321;SDS011;43159;51.006;18.224;2022-10-04T23:01:11;21.00;;;10.40;;
57321;SDS011;43159;51.006;18.224;2022-10-04T23:03:39;19.80;;;10.10;;
57321;SDS011;43159;51.006;18.224;2022-10-04T23:06:10;20.70;;;10.20;;
57321;SDS011;43159;51.006;18.224;2022-10-04T23:08:41;21.50;;;9.80;;
57321;SDS011;43159;51.006;18.224;2022-10-04T23:11:08;21.80;;;10.70;;
57321;SDS011;43159;51.006;18.224;2022-10-04T23:13:34;21.20;;;10.20;;
57321;SDS011;43159;51.006;18.224;2022-10-04T23:16:01;21.00;;;10.00;;
57321;SDS011;43159;51.006;18.224;2022-10-04T23:18:35;20.80;;;9.40;;
57321;SDS011;43159;51.006;18.224;2022-10-04T23:21:00;18.50;;;9.10;;
57321;SDS011;43159;51.006;18.224;2022-10-04T23:23:27;21.20;;;9.90;;
57321;SDS011;43159;51.006;18.224;2022-10-04T23:25:53;19.20;;;9.60;;
57321;SDS011;43159;51.006;18.224;2022-10-04T23:28:19;20.50;;;9.40;;
57321;SDS011;43159;51.006;18.224;2022-10-04T23:30:47;22.90;;;10.60;;
57321;SDS011;43159;51.006;18.224;2022-10-04T23:33:22;24.30;;;10.60;;
57321;SDS011;43159;51.006;18.224;2022-10-04T23:35:48;21.30;;;10.50;;
57321;SDS011;43159;51.006;18.224;2022-10-04T23:38:15;22.00;;;10.50;;
57321;SDS011;43159;51.006;18.224;2022-10-04T23:40:41;22.40;;;9.20;;
57321;SDS011;43159;51.006;18.224;2022-10-04T23:43:11;21.40;;;9.90;;
57321;SDS011;43159;51.006;18.224;2022-10-04T23:45:39;21.40;;;9.50;;
57321;SDS011;43159;51.006;18.224;2022-10-04T23:48:08;20.00;;;9.30;;
57321;SDS011;43159;51.006;18.224;2022-10-04T23:50:36;21.00;;;9.20;;
57321;SDS011;43159;51.006;18.224;2022-10-04T23:53:04;20.40;;;8.80;;
57321;SDS011;43159;51.006;18.224;2022-10-04T23:55:35;19.50;;;9.20;;
57321;SDS011;43159;51.006;18.224;2022-10-04T23:58:05;21.60;;;10.40;;
